createdAt,value
2019-05-29T00:03:58.663Z,0.60
2019-05-29T00:08:52.012Z,0.83
2019-05-29T00:13:45.328Z,0.77
2019-05-29T00:18:38.986Z,0.60
2019-05-29T00:23:32.463Z,0.80
2019-05-29T00:28:25.811Z,1.23
2019-05-29T00:33:19.530Z,0.87
2019-05-29T00:38:12.879Z,0.50
2019-05-29T00:43:07.340Z,0.50
2019-05-29T00:47:59.705Z,0.73
2019-05-29T00:52:53.348Z,0.70
2019-05-29T00:57:46.690Z,0.63
2019-05-29T01:02:40.134Z,0.60
2019-05-29T01:07:33.467Z,0.70
2019-05-29T01:12:26.788Z,0.57
2019-05-29T01:17:20.264Z,0.50
2019-05-29T01:22:14.105Z,0.70
2019-05-29T01:27:07.029Z,0.90
2019-05-29T01:32:00.338Z,0.70
2019-05-29T01:36:53.768Z,0.60
2019-05-29T01:41:47.095Z,0.70
2019-05-29T01:46:40.427Z,0.60
2019-05-29T01:51:34.213Z,0.50
2019-05-29T01:56:28.089Z,0.73
2019-05-29T02:01:21.933Z,0.87
2019-05-29T02:06:14.271Z,0.77
2019-05-29T02:11:07.615Z,0.63
2019-05-29T02:16:01.126Z,0.77
2019-05-29T02:20:54.802Z,0.77
2019-05-29T02:25:48.163Z,0.60
2019-05-29T02:30:41.561Z,0.70
2019-05-29T02:35:34.959Z,0.63
2019-05-29T02:40:30.117Z,0.57
2019-05-29T02:45:23.838Z,0.60
2019-05-29T02:50:15.328Z,1.10
2019-05-29T02:55:08.685Z,0.73
2019-05-29T03:00:02.756Z,0.60
2019-05-29T03:04:56.133Z,0.70
2019-05-29T03:09:49.810Z,0.60
2019-05-29T03:14:43.189Z,0.93
2019-05-29T03:19:36.614Z,0.80
2019-05-29T03:24:30.820Z,0.70
2019-05-29T03:29:23.542Z,0.90
2019-05-29T03:34:17.347Z,0.87
2019-05-29T03:39:10.734Z,0.77
2019-05-29T03:44:04.204Z,1.00
2019-05-29T03:48:57.564Z,0.90
2019-05-29T03:53:51.144Z,0.87
2019-05-29T03:58:44.629Z,1.10
2019-05-29T04:03:38.507Z,1.10
2019-05-29T04:08:33.482Z,1.17
2019-05-29T04:13:27.458Z,1.00
2019-05-29T04:18:19.960Z,1.10
2019-05-29T04:23:13.280Z,1.07
2019-05-29T04:28:08.245Z,1.13
2019-05-29T04:33:02.177Z,1.70
2019-05-29T04:37:55.552Z,1.50
2019-05-29T04:42:49.749Z,1.80
2019-05-29T04:47:43.161Z,2.40
2019-05-29T04:52:39.844Z,2.40
2019-05-29T04:57:32.854Z,2.20
2019-05-29T05:02:25.566Z,2.10
2019-05-29T05:07:19.015Z,2.00
2019-05-29T05:12:12.644Z,1.97
2019-05-29T05:17:06.361Z,2.50
2019-05-29T05:21:59.978Z,3.17
2019-05-29T05:26:53.655Z,2.70
2019-05-29T05:31:46.983Z,2.67
2019-05-29T05:36:41.012Z,2.17
2019-05-29T05:41:34.733Z,1.83
2019-05-29T05:46:27.430Z,1.80
2019-05-29T05:51:20.800Z,1.70
2019-05-29T05:56:14.162Z,1.60
2019-05-29T06:01:08.046Z,1.90
2019-05-29T06:06:01.390Z,1.80
2019-05-29T06:10:54.956Z,1.37
2019-05-29T06:15:49.231Z,1.30
2019-05-29T06:20:43.233Z,1.60
2019-05-29T06:25:36.853Z,1.43
2019-05-29T06:30:29.405Z,1.60
2019-05-29T06:35:22.716Z,1.80
2019-05-29T06:40:36.327Z,1.50
2019-05-29T06:45:29.932Z,1.60
2019-05-29T06:50:23.523Z,1.63
2019-05-29T06:55:16.876Z,1.30
2019-05-29T07:00:10.575Z,1.63
2019-05-29T07:05:04.048Z,1.60
2019-05-29T07:09:57.648Z,1.20
2019-05-29T07:14:50.954Z,1.40
2019-05-29T07:19:57.473Z,1.00
2019-05-29T07:24:38.761Z,1.07
2019-05-29T07:29:31.026Z,0.97
2019-05-29T07:34:24.319Z,0.97
2019-05-29T07:39:17.911Z,1.00
2019-05-29T07:44:11.243Z,0.90
2019-05-29T07:49:04.588Z,0.97
2019-05-29T07:53:58.051Z,0.70
2019-05-29T07:59:01.691Z,0.90
2019-05-29T08:03:47.290Z,1.20
2019-05-29T08:08:39.214Z,1.00
2019-05-29T08:13:33.301Z,0.77
2019-05-29T08:18:26.594Z,0.90
2019-05-29T08:23:19.893Z,0.80
2019-05-29T08:28:13.201Z,0.90
2019-05-29T08:33:06.632Z,0.67
2019-05-29T08:37:59.930Z,0.80
2019-05-29T08:42:53.368Z,0.77
2019-05-29T08:47:47.637Z,0.67
2019-05-29T08:52:40.155Z,0.97
2019-05-29T08:57:33.450Z,1.00
2019-05-29T09:02:26.881Z,0.73
2019-05-29T09:07:20.198Z,0.87
2019-05-29T09:12:13.651Z,0.90
2019-05-29T09:17:07.099Z,0.80
2019-05-29T09:22:00.408Z,0.73
2019-05-29T09:26:53.722Z,0.87
2019-05-29T09:31:47.168Z,1.00
2019-05-29T09:36:40.591Z,0.70
2019-05-29T09:41:33.946Z,0.90
2019-05-29T09:46:27.276Z,0.80
2019-05-29T09:51:21.894Z,1.40
2019-05-29T09:56:14.023Z,0.90
2019-05-29T10:01:22.372Z,1.00
2019-05-29T10:06:01.521Z,1.10
2019-05-29T10:11:03.859Z,0.60
2019-05-29T10:15:47.568Z,0.70
2019-05-29T10:20:40.970Z,0.77
2019-05-29T10:25:34.275Z,0.80
2019-05-29T10:30:27.712Z,0.53
2019-05-29T10:35:21.037Z,0.87
2019-05-29T10:40:14.474Z,0.80
2019-05-29T10:45:07.833Z,0.80
2019-05-29T10:50:01.231Z,0.70
2019-05-29T10:54:54.579Z,0.80
2019-05-29T10:59:48.715Z,0.63
2019-05-29T11:04:41.177Z,0.70
2019-05-29T11:09:43.925Z,0.73
2019-05-29T11:14:27.787Z,0.80
2019-05-29T11:19:21.083Z,0.60
2019-05-29T11:24:14.438Z,0.53
2019-05-29T11:29:07.771Z,0.50
2019-05-29T11:34:01.330Z,0.60
2019-05-29T11:38:54.699Z,0.53
2019-05-29T11:43:48.095Z,0.60
2019-05-29T11:48:41.406Z,0.63
2019-05-29T11:53:34.854Z,0.60
2019-05-29T11:58:31.544Z,0.83
2019-05-29T12:03:21.927Z,0.60
2019-05-29T12:08:15.624Z,0.90
2019-05-29T12:13:09.061Z,0.80
2019-05-29T12:18:20.068Z,0.90
2019-05-29T12:23:18.905Z,0.40
2019-05-29T12:27:49.450Z,0.60
2019-05-29T12:32:43.106Z,0.67
2019-05-29T12:37:36.444Z,0.57
2019-05-29T12:42:29.807Z,0.73
2019-05-29T12:47:23.164Z,0.40
2019-05-29T12:52:17.412Z,0.60
2019-05-29T12:57:10.744Z,0.60
2019-05-29T13:02:04.733Z,0.50
2019-05-29T13:06:58.607Z,0.60
2019-05-29T13:11:51.094Z,0.40
2019-05-29T13:16:44.405Z,0.40
2019-05-29T13:21:37.804Z,0.60
2019-05-29T13:26:31.159Z,1.20
2019-05-29T13:31:24.578Z,1.20
2019-05-29T13:36:18.043Z,1.20
2019-05-29T13:41:11.656Z,1.70
2019-05-29T13:46:04.973Z,1.80
2019-05-29T13:50:59.789Z,1.40
2019-05-29T13:55:52.476Z,1.60
2019-05-29T14:00:45.812Z,1.77
2019-05-29T14:05:39.173Z,1.60
2019-05-29T14:10:33.247Z,1.90
2019-05-29T14:15:26.641Z,1.63
2019-05-29T14:20:20.212Z,2.00
2019-05-29T14:25:13.871Z,2.13
2019-05-29T14:30:08.401Z,1.50
2019-05-29T14:35:03.725Z,1.80
2019-05-29T14:39:54.381Z,1.90
2019-05-29T14:44:47.714Z,2.23
2019-05-29T14:49:41.127Z,2.87
2019-05-29T14:54:41.711Z,2.30
2019-05-29T14:59:27.840Z,2.30
2019-05-29T15:04:21.186Z,2.50
2019-05-29T15:09:14.664Z,2.13
2019-05-29T15:14:08.301Z,1.97
2019-05-29T15:19:01.719Z,1.83
2019-05-29T15:23:55.058Z,1.50
2019-05-29T15:28:48.388Z,2.00
2019-05-29T15:33:41.695Z,2.13
2019-05-29T15:38:35.003Z,2.63
2019-05-29T15:43:28.589Z,2.53
2019-05-29T15:48:21.890Z,2.57
2019-05-29T15:53:15.456Z,2.00
2019-05-29T15:58:09.130Z,2.23
2019-05-29T16:03:02.099Z,1.83
2019-05-29T16:07:55.407Z,1.40
2019-05-29T16:12:48.881Z,1.37
2019-05-29T16:17:42.187Z,0.97
2019-05-29T16:22:35.613Z,1.10
2019-05-29T16:27:31.074Z,1.00
2019-05-29T16:32:22.669Z,1.40
2019-05-29T16:37:17.292Z,1.00
2019-05-29T16:42:09.534Z,0.90
2019-05-29T16:47:03.141Z,1.00
2019-05-29T16:51:56.851Z,1.17
2019-05-29T16:56:50.207Z,1.20
2019-05-29T17:01:43.897Z,1.00
2019-05-29T17:06:37.578Z,1.33
2019-05-29T17:11:30.940Z,1.23
2019-05-29T17:16:24.777Z,1.30
2019-05-29T17:21:18.678Z,1.30
2019-05-29T17:26:11.688Z,1.73
2019-05-29T17:31:05.703Z,1.40
2019-05-29T17:35:59.048Z,1.30
2019-05-29T17:40:53.059Z,1.40
2019-05-29T17:45:46.423Z,1.47
2019-05-29T17:50:40.409Z,1.30
2019-05-29T17:55:34.149Z,1.93
2019-05-29T18:00:27.827Z,2.07
2019-05-29T18:05:22.531Z,1.70
2019-05-29T18:10:14.558Z,1.80
2019-05-29T18:15:07.907Z,2.17
2019-05-29T18:20:01.278Z,2.03
2019-05-29T18:24:54.626Z,2.20
2019-05-29T18:29:48.081Z,2.40
2019-05-29T18:34:41.423Z,2.90
2019-05-29T18:39:34.774Z,2.33
2019-05-29T18:44:28.940Z,1.60
2019-05-29T18:49:22.246Z,1.33
2019-05-29T18:54:14.850Z,1.70
2019-05-29T18:59:08.178Z,1.60
2019-05-29T19:04:01.523Z,1.40
2019-05-29T19:08:54.905Z,1.30
2019-05-29T19:13:48.483Z,1.20
2019-05-29T19:18:41.857Z,1.10
2019-05-29T19:23:35.273Z,1.00
2019-05-29T19:28:28.763Z,1.13
2019-05-29T19:33:23.502Z,1.00
2019-05-29T19:38:15.376Z,1.10
2019-05-29T19:43:08.759Z,0.90
2019-05-29T19:48:02.132Z,1.20
2019-05-29T19:53:00.781Z,1.10
2019-05-29T19:57:56.533Z,1.20
2019-05-29T20:02:47.492Z,1.43
2019-05-29T20:07:40.824Z,1.03
2019-05-29T20:12:34.185Z,1.00
2019-05-29T20:17:27.925Z,1.00
2019-05-29T20:22:21.391Z,1.10
2019-05-29T20:27:14.735Z,1.00
2019-05-29T20:32:08.412Z,1.03
2019-05-29T20:37:01.716Z,0.87
2019-05-29T20:41:55.147Z,1.00
2019-05-29T20:46:48.532Z,0.80
2019-05-29T20:51:42.317Z,0.90
2019-05-29T20:56:35.857Z,0.93
2019-05-29T21:01:28.671Z,0.90
2019-05-29T21:06:22.273Z,1.00
2019-05-29T21:11:15.739Z,1.00
2019-05-29T21:16:09.069Z,0.67
2019-05-29T21:21:02.509Z,1.10
2019-05-29T21:25:55.815Z,0.80
2019-05-29T21:30:49.267Z,1.03
2019-05-29T21:35:42.593Z,0.70
2019-05-29T21:40:36.319Z,0.97
2019-05-29T21:45:29.330Z,0.90
2019-05-29T21:50:23.127Z,0.70
2019-05-29T21:55:16.425Z,0.87
2019-05-29T22:00:10.825Z,0.70
2019-05-29T22:05:04.314Z,1.03
2019-05-29T22:09:58.699Z,1.60
2019-05-29T22:14:51.694Z,0.90
2019-05-29T22:19:44.391Z,1.20
2019-05-29T22:24:37.722Z,0.90
2019-05-29T22:29:31.052Z,1.00
2019-05-29T22:34:24.391Z,1.07
2019-05-29T22:39:17.728Z,1.33
2019-05-29T22:44:11.159Z,1.10
2019-05-29T22:49:04.908Z,1.20
2019-05-29T22:53:58.556Z,1.50
2019-05-29T22:58:52.134Z,1.00
2019-05-29T23:03:46.059Z,0.97
2019-05-29T23:08:39.898Z,1.40
2019-05-29T23:13:33.790Z,1.30
2019-05-29T23:18:28.504Z,1.07
2019-05-29T23:23:25.498Z,1.43
2019-05-29T23:28:18.938Z,0.90
2019-05-29T23:33:12.642Z,0.80
2019-05-29T23:38:06.079Z,1.20
2019-05-29T23:42:59.524Z,0.87
2019-05-29T23:47:53.437Z,0.87
2019-05-29T23:52:46.874Z,1.07
2019-05-29T23:57:40.701Z,0.83
